sensor_id;sensor_type;location;lat;lon;timestamp;pressure;altitude;pressure_sealevel;temperature;humidity
8253;BME280;61313;48.396;10.008;2023-10-08T00:02:03;97089.38;;;15.98;54.46
8253;BME280;61313;48.396;10.008;2023-10-08T00:04:28;97092.59;;;16.03;54.41
8253;BME280;61313;48.396;10.008;2023-10-08T00:06:54;97089.53;;;15.95;54.23
8253;BME280;61313;48.396;10.008;2023-10-08T00:09:20;97086.13;;;15.93;54.39
8253;BME280;61313;48.396;10.008;2023-10-08T00:11:46;97088.75;;;15.93;53.98
8253;BME280;61313;48.396;10.008;2023-10-08T00:14:19;97086.78;;;15.96;53.96
8253;BME280;61313;48.396;10.008;2023-10-08T00:16:47;97069.09;;;15.97;53.67
8253;BME280;61313;48.396;10.008;2023-10-08T00:19:15;97075.00;;;15.86;54.23
8253;BME280;61313;48.396;10.008;2023-10-08T00:21:43;97076.09;;;15.82;54.49
8253;BME280;61313;48.396;10.008;2023-10-08T00:24:10;97068.94;;;15.84;54.67
8253;BME280;61313;48.396;10.008;2023-10-08T00:26:35;97070.81;;;15.82;54.49
8253;BME280;61313;48.396;10.008;2023-10-08T00:29:07;97076.38;;;15.93;54.19
8253;BME280;61313;48.396;10.008;2023-10-08T00:31:41;97076.56;;;15.90;54.20
8253;BME280;61313;48.396;10.008;2023-10-08T00:34:10;97075.50;;;15.77;54.83
8253;BME280;61313;48.396;10.008;2023-10-08T00:36:43;97071.22;;;15.74;55.12
8253;BME280;61313;48.396;10.008;2023-10-08T00:39:10;97064.06;;;15.76;55.24
8253;BME280;61313;48.396;10.008;2023-10-08T00:41:43;97062.50;;;15.72;55.21
8253;BME280;61313;48.396;10.008;2023-10-08T00:44:11;97055.56;;;15.70;55.52
8253;BME280;61313;48.396;10.008;2023-10-08T00:46:42;97057.38;;;15.69;55.33
8253;BME280;61313;48.396;10.008;2023-10-08T00:49:13;97054.72;;;15.69;55.21
8253;BME280;61313;48.396;10.008;2023-10-08T00:51:48;97041.28;;;15.56;55.61
8253;BME280;61313;48.396;10.008;2023-10-08T00:54:26;97043.53;;;15.64;55.73
8253;BME280;61313;48.396;10.008;2023-10-08T00:56:54;97045.59;;;15.75;55.21
8253;BME280;61313;48.396;10.008;2023-10-08T00:59:23;97039.16;;;15.80;55.06
8253;BME280;61313;48.396;10.008;2023-10-08T01:01:51;97041.28;;;15.74;55.32
8253;BME280;61313;48.396;10.008;2023-10-08T01:04:18;97050.66;;;15.79;55.05
8253;BME280;61313;48.396;10.008;2023-10-08T01:06:49;97060.84;;;15.70;55.44
8253;BME280;61313;48.396;10.008;2023-10-08T01:09:19;97059.22;;;15.67;55.60
8253;BME280;61313;48.396;10.008;2023-10-08T01:12:13;97053.78;;;15.70;55.69
8253;BME280;61313;48.396;10.008;2023-10-08T01:15:00;97046.91;;;15.66;55.56
8253;BME280;61313;48.396;10.008;2023-10-08T01:17:49;97056.59;;;15.67;55.93
8253;BME280;61313;48.396;10.008;2023-10-08T01:20:23;97053.00;;;15.68;55.63
8253;BME280;61313;48.396;10.008;2023-10-08T01:23:07;97053.16;;;15.65;55.46
8253;BME280;61313;48.396;10.008;2023-10-08T01:25:41;97046.91;;;15.66;55.29
8253;BME280;61313;48.396;10.008;2023-10-08T01:28:07;97044.94;;;15.71;55.16
8253;BME280;61313;48.396;10.008;2023-10-08T01:30:53;97041.97;;;15.60;55.67
8253;BME280;61313;48.396;10.008;2023-10-08T01:33:20;97047.19;;;15.61;55.40
8253;BME280;61313;48.396;10.008;2023-10-08T01:35:48;97046.19;;;15.64;55.29
8253;BME280;61313;48.396;10.008;2023-10-08T01:38:16;97042.06;;;15.58;55.58
8253;BME280;61313;48.396;10.008;2023-10-08T01:40:47;97040.09;;;15.62;55.55
8253;BME280;61313;48.396;10.008;2023-10-08T01:43:16;97042.81;;;15.60;55.43
8253;BME280;61313;48.396;10.008;2023-10-08T01:45:42;97038.13;;;15.65;55.48
8253;BME280;61313;48.396;10.008;2023-10-08T01:48:08;97037.00;;;15.54;55.58
8253;BME280;61313;48.396;10.008;2023-10-08T01:50:37;97034.97;;;15.59;55.61
8253;BME280;61313;48.396;10.008;2023-10-08T01:53:03;97045.72;;;15.56;55.13
8253;BME280;61313;48.396;10.008;2023-10-08T01:55:32;97041.69;;;15.49;54.83
8253;BME280;61313;48.396;10.008;2023-10-08T01:58:11;97033.44;;;15.55;54.92
8253;BME280;61313;48.396;10.008;2023-10-08T02:00:42;97036.44;;;15.64;54.32
8253;BME280;61313;48.396;10.008;2023-10-08T02:03:07;97028.41;;;15.50;54.82
8253;BME280;61313;48.396;10.008;2023-10-08T02:05:32;97024.19;;;15.46;54.86
8253;BME280;61313;48.396;10.008;2023-10-08T02:07:59;97029.25;;;15.51;55.40
8253;BME280;61313;48.396;10.008;2023-10-08T02:10:24;97027.44;;;15.51;55.34
8253;BME280;61313;48.396;10.008;2023-10-08T02:12:50;97027.78;;;15.61;55.29
8253;BME280;61313;48.396;10.008;2023-10-08T02:15:15;97030.78;;;15.55;55.50
8253;BME280;61313;48.396;10.008;2023-10-08T02:17:41;97031.97;;;15.49;55.82
8253;BME280;61313;48.396;10.008;2023-10-08T02:20:08;97029.41;;;15.48;56.36
8253;BME280;61313;48.396;10.008;2023-10-08T02:22:34;97025.03;;;15.46;56.53
8253;BME280;61313;48.396;10.008;2023-10-08T02:24:59;97028.91;;;15.57;56.28
8253;BME280;61313;48.396;10.008;2023-10-08T02:27:28;97033.75;;;15.49;56.75
8253;BME280;61313;48.396;10.008;2023-10-08T02:29:54;97041.94;;;15.44;56.88
8253;BME280;61313;48.396;10.008;2023-10-08T02:32:20;97039.34;;;15.42;57.06
8253;BME280;61313;48.396;10.008;2023-10-08T02:34:48;97038.38;;;15.45;57.06
8253;BME280;61313;48.396;10.008;2023-10-08T02:37:13;97046.19;;;15.46;57.43
8253;BME280;61313;48.396;10.008;2023-10-08T02:39:40;97037.34;;;15.48;57.43
8253;BME280;61313;48.396;10.008;2023-10-08T02:42:05;97028.28;;;15.52;57.66
8253;BME280;61313;48.396;10.008;2023-10-08T02:44:36;97032.31;;;15.43;58.00
8253;BME280;61313;48.396;10.008;2023-10-08T02:47:08;97034.25;;;15.39;58.13
8253;BME280;61313;48.396;10.008;2023-10-08T02:49:33;97039.47;;;15.41;58.10
8253;BME280;61313;48.396;10.008;2023-10-08T02:52:00;97035.97;;;15.40;58.04
8253;BME280;61313;48.396;10.008;2023-10-08T02:54:25;97033.22;;;15.42;58.14
8253;BME280;61313;48.396;10.008;2023-10-08T02:56:57;97025.63;;;15.36;58.59
8253;BME280;61313;48.396;10.008;2023-10-08T02:59:29;97036.66;;;15.44;58.45
8253;BME280;61313;48.396;10.008;2023-10-08T03:02:04;97028.16;;;15.37;58.31
8253;BME280;61313;48.396;10.008;2023-10-08T03:04:29;97034.25;;;15.39;58.52
8253;BME280;61313;48.396;10.008;2023-10-08T03:06:56;97036.28;;;15.34;58.47
8253;BME280;61313;48.396;10.008;2023-10-08T03:09:22;97030.44;;;15.28;58.32
8253;BME280;61313;48.396;10.008;2023-10-08T03:11:51;97027.81;;;15.28;58.35
8253;BME280;61313;48.396;10.008;2023-10-08T03:14:18;97020.81;;;15.27;58.09
8253;BME280;61313;48.396;10.008;2023-10-08T03:16:51;97021.38;;;15.33;58.18
8253;BME280;61313;48.396;10.008;2023-10-08T03:19:17;97029.44;;;15.30;58.27
8253;BME280;61313;48.396;10.008;2023-10-08T03:21:54;97020.91;;;15.25;58.43
8253;BME280;61313;48.396;10.008;2023-10-08T03:24:23;97014.94;;;15.21;58.57
8253;BME280;61313;48.396;10.008;2023-10-08T03:26:58;97022.69;;;15.24;58.20
8253;BME280;61313;48.396;10.008;2023-10-08T03:29:53;97020.28;;;15.20;58.66
8253;BME280;61313;48.396;10.008;2023-10-08T03:32:19;97010.31;;;15.25;58.80
8253;BME280;61313;48.396;10.008;2023-10-08T03:34:51;97019.56;;;15.16;58.96
8253;BME280;61313;48.396;10.008;2023-10-08T03:37:21;97020.94;;;15.08;59.36
8253;BME280;61313;48.396;10.008;2023-10-08T03:39:54;97019.50;;;15.18;59.28
8253;BME280;61313;48.396;10.008;2023-10-08T03:42:32;97022.47;;;15.12;59.46
8253;BME280;61313;48.396;10.008;2023-10-08T03:45:06;97026.75;;;15.14;59.60
8253;BME280;61313;48.396;10.008;2023-10-08T03:47:41;97021.84;;;15.07;59.20
8253;BME280;61313;48.396;10.008;2023-10-08T03:50:11;97020.69;;;15.12;59.11
8253;BME280;61313;48.396;10.008;2023-10-08T03:52:41;97019.53;;;15.00;59.22
8253;BME280;61313;48.396;10.008;2023-10-08T03:55:08;97013.31;;;15.01;59.15
8253;BME280;61313;48.396;10.008;2023-10-08T03:57:51;97018.44;;;15.04;59.09
8253;BME280;61313;48.396;10.008;2023-10-08T04:00:22;97011.28;;;15.07;58.82
8253;BME280;61313;48.396;10.008;2023-10-08T04:02:54;97016.44;;;15.10;58.41
8253;BME280;61313;48.396;10.008;2023-10-08T04:05:27;97018.94;;;14.95;59.03
8253;BME280;61313;48.396;10.008;2023-10-08T04:07:57;97021.25;;;15.01;58.88
8253;BME280;61313;48.396;10.008;2023-10-08T04:10:27;97019.13;;;15.08;59.29
8253;BME280;61313;48.396;10.008;2023-10-08T04:13:08;97016.44;;;15.10;59.06
8253;BME280;61313;48.396;10.008;2023-10-08T04:15:35;97017.88;;;15.15;58.86
8253;BME280;61313;48.396;10.008;2023-10-08T04:18:06;97020.31;;;15.02;59.63
8253;BME280;61313;48.396;10.008;2023-10-08T04:20:32;97015.88;;;15.03;59.39
8253;BME280;61313;48.396;10.008;2023-10-08T04:23:12;97016.72;;;15.03;59.24
8253;BME280;61313;48.396;10.008;2023-10-08T04:25:46;97022.09;;;15.02;58.92
8253;BME280;61313;48.396;10.008;2023-10-08T04:28:16;97025.75;;;14.99;58.79
8253;BME280;61313;48.396;10.008;2023-10-08T04:30:46;97028.09;;;15.06;58.43
8253;BME280;61313;48.396;10.008;2023-10-08T04:33:13;97023.03;;;15.01;58.63
8253;BME280;61313;48.396;10.008;2023-10-08T04:35:41;97020.78;;;14.93;58.56
8253;BME280;61313;48.396;10.008;2023-10-08T04:38:27;97022.31;;;14.97;58.71
8253;BME280;61313;48.396;10.008;2023-10-08T04:40:54;97025.38;;;14.90;58.81
8253;BME280;61313;48.396;10.008;2023-10-08T04:43:22;97022.66;;;14.91;59.01
8253;BME280;61313;48.396;10.008;2023-10-08T04:45:55;97027.00;;;14.92;59.16
8253;BME280;61313;48.396;10.008;2023-10-08T04:48:25;97018.16;;;14.93;59.08
8253;BME280;61313;48.396;10.008;2023-10-08T04:50:54;97019.00;;;14.94;59.05
8253;BME280;61313;48.396;10.008;2023-10-08T04:53:31;97015.75;;;14.89;59.46
8253;BME280;61313;48.396;10.008;2023-10-08T04:56:00;97011.47;;;14.86;59.50
8253;BME280;61313;48.396;10.008;2023-10-08T04:58:39;97008.84;;;14.86;59.58
8253;BME280;61313;48.396;10.008;2023-10-08T05:01:06;97016.75;;;14.86;59.66
8253;BME280;61313;48.396;10.008;2023-10-08T05:03:55;97014.00;;;14.88;59.66
8253;BME280;61313;48.396;10.008;2023-10-08T05:06:34;97017.78;;;14.84;59.91
8253;BME280;61313;48.396;10.008;2023-10-08T05:09:08;97009.13;;;14.80;59.96
8253;BME280;61313;48.396;10.008;2023-10-08T05:11:47;97015.59;;;14.74;60.16
8253;BME280;61313;48.396;10.008;2023-10-08T05:14:17;97019.78;;;14.78;60.03
8253;BME280;61313;48.396;10.008;2023-10-08T05:16:56;97017.91;;;14.80;59.76
8253;BME280;61313;48.396;10.008;2023-10-08T05:19:41;97023.66;;;14.71;60.01
8253;BME280;61313;48.396;10.008;2023-10-08T05:22:08;97023.88;;;14.67;60.32
8253;BME280;61313;48.396;10.008;2023-10-08T05:24:48;97026.53;;;14.67;60.26
8253;BME280;61313;48.396;10.008;2023-10-08T05:27:33;97028.94;;;14.71;60.11
8253;BME280;61313;48.396;10.008;2023-10-08T05:30:26;97027.25;;;14.70;60.18
8253;BME280;61313;48.396;10.008;2023-10-08T05:33:18;97030.13;;;14.66;60.09
8253;BME280;61313;48.396;10.008;2023-10-08T05:36:12;97037.09;;;14.67;59.96
8253;BME280;61313;48.396;10.008;2023-10-08T05:38:44;97040.28;;;14.73;59.64
8253;BME280;61313;48.396;10.008;2023-10-08T05:41:26;97031.75;;;14.68;59.09
8253;BME280;61313;48.396;10.008;2023-10-08T05:44:04;97044.25;;;14.82;58.67
8253;BME280;61313;48.396;10.008;2023-10-08T05:46:40;97042.31;;;14.68;58.96
8253;BME280;61313;48.396;10.008;2023-10-08T05:49:14;97038.59;;;14.72;58.73
8253;BME280;61313;48.396;10.008;2023-10-08T05:51:41;97039.44;;;14.73;58.54
8253;BME280;61313;48.396;10.008;2023-10-08T05:54:16;97052.81;;;14.70;58.81
8253;BME280;61313;48.396;10.008;2023-10-08T05:57:01;97053.59;;;14.72;58.57
8253;BME280;61313;48.396;10.008;2023-10-08T05:59:53;97053.44;;;14.75;58.59
8253;BME280;61313;48.396;10.008;2023-10-08T06:02:21;97048.75;;;14.80;58.05
8253;BME280;61313;48.396;10.008;2023-10-08T06:04:53;97061.13;;;14.79;58.04
8253;BME280;61313;48.396;10.008;2023-10-08T06:10:20;97062.13;;;14.77;57.69
8253;BME280;61313;48.396;10.008;2023-10-08T06:13:03;97062.03;;;14.78;57.50
8253;BME280;61313;48.396;10.008;2023-10-08T06:15:50;97061.28;;;14.76;57.25
8253;BME280;61313;48.396;10.008;2023-10-08T06:18:17;97058.31;;;14.82;57.12
8253;BME280;61313;48.396;10.008;2023-10-08T06:20:44;97053.75;;;14.86;57.25
8253;BME280;61313;48.396;10.008;2023-10-08T06:23:14;97062.97;;;14.95;57.33
8253;BME280;61313;48.396;10.008;2023-10-08T06:25:44;97069.03;;;14.97;57.21
8253;BME280;61313;48.396;10.008;2023-10-08T06:28:16;97069.44;;;15.07;57.16
8253;BME280;61313;48.396;10.008;2023-10-08T06:30:48;97070.75;;;15.15;56.54
8253;BME280;61313;48.396;10.008;2023-10-08T06:33:15;97071.53;;;15.17;56.72
8253;BME280;61313;48.396;10.008;2023-10-08T06:35:42;97075.81;;;15.20;56.46
8253;BME280;61313;48.396;10.008;2023-10-08T06:38:11;97082.97;;;15.18;56.76
8253;BME280;61313;48.396;10.008;2023-10-08T06:40:36;97089.03;;;15.20;56.82
8253;BME280;61313;48.396;10.008;2023-10-08T06:43:03;97095.16;;;15.20;56.98
8253;BME280;61313;48.396;10.008;2023-10-08T06:45:43;97092.63;;;15.19;56.89
8253;BME280;61313;48.396;10.008;2023-10-08T06:48:09;97102.88;;;15.25;57.17
8253;BME280;61313;48.396;10.008;2023-10-08T06:50:43;97101.84;;;15.28;57.07
8253;BME280;61313;48.396;10.008;2023-10-08T06:53:10;97096.31;;;15.32;57.01
8253;BME280;61313;48.396;10.008;2023-10-08T06:55:42;97100.34;;;15.39;57.39
8253;BME280;61313;48.396;10.008;2023-10-08T06:58:08;97090.13;;;15.33;57.71
8253;BME280;61313;48.396;10.008;2023-10-08T07:00:37;97095.53;;;15.48;57.32
8253;BME280;61313;48.396;10.008;2023-10-08T07:03:04;97098.44;;;15.59;57.07
8253;BME280;61313;48.396;10.008;2023-10-08T07:05:33;97096.75;;;15.58;57.34
8253;BME280;61313;48.396;10.008;2023-10-08T07:08:02;97093.88;;;15.62;56.92
8253;BME280;61313;48.396;10.008;2023-10-08T07:10:34;97093.09;;;15.60;57.16
8253;BME280;61313;48.396;10.008;2023-10-08T07:13:00;97092.25;;;15.60;57.34
8253;BME280;61313;48.396;10.008;2023-10-08T07:15:28;97086.00;;;15.61;57.53
8253;BME280;61313;48.396;10.008;2023-10-08T07:17:55;97084.31;;;15.60;57.51
8253;BME280;61313;48.396;10.008;2023-10-08T07:20:21;97085.69;;;15.67;57.90
8253;BME280;61313;48.396;10.008;2023-10-08T07:22:47;97078.00;;;15.62;57.95
8253;BME280;61313;48.396;10.008;2023-10-08T07:25:22;97087.13;;;15.57;57.89
8253;BME280;61313;48.396;10.008;2023-10-08T07:27:48;97086.47;;;15.69;57.77
8253;BME280;61313;48.396;10.008;2023-10-08T07:30:14;97088.97;;;15.72;57.69
8253;BME280;61313;48.396;10.008;2023-10-08T07:32:52;97085.47;;;15.72;58.11
8253;BME280;61313;48.396;10.008;2023-10-08T07:35:19;97089.25;;;15.66;57.87
8253;BME280;61313;48.396;10.008;2023-10-08T07:37:45;97090.69;;;15.73;58.06
8253;BME280;61313;48.396;10.008;2023-10-08T07:40:15;97093.34;;;15.73;58.00
8253;BME280;61313;48.396;10.008;2023-10-08T07:42:40;97097.44;;;15.79;58.21
8253;BME280;61313;48.396;10.008;2023-10-08T07:45:06;97097.03;;;15.86;57.73
8253;BME280;61313;48.396;10.008;2023-10-08T07:47:32;97099.09;;;15.97;57.56
8253;BME280;61313;48.396;10.008;2023-10-08T07:49:57;97098.00;;;16.33;56.37
8253;BME280;61313;48.396;10.008;2023-10-08T07:52:24;97090.41;;;16.43;56.35
8253;BME280;61313;48.396;10.008;2023-10-08T07:54:49;97082.13;;;16.49;56.12
8253;BME280;61313;48.396;10.008;2023-10-08T07:57:15;97086.06;;;16.42;55.98
8253;BME280;61313;48.396;10.008;2023-10-08T07:59:51;97084.84;;;16.32;56.39
8253;BME280;61313;48.396;10.008;2023-10-08T08:02:20;97090.91;;;16.34;56.59
8253;BME280;61313;48.396;10.008;2023-10-08T08:04:53;97089.56;;;16.42;56.38
8253;BME280;61313;48.396;10.008;2023-10-08T08:07:21;97085.53;;;16.35;56.71
8253;BME280;61313;48.396;10.008;2023-10-08T08:09:49;97096.22;;;16.34;56.76
8253;BME280;61313;48.396;10.008;2023-10-08T08:12:24;97094.41;;;16.34;57.20
8253;BME280;61313;48.396;10.008;2023-10-08T08:14:57;97088.69;;;16.42;56.34
8253;BME280;61313;48.396;10.008;2023-10-08T08:17:23;97093.31;;;16.38;56.56
8253;BME280;61313;48.396;10.008;2023-10-08T08:19:50;97093.50;;;16.35;56.64
8253;BME280;61313;48.396;10.008;2023-10-08T08:22:18;97089.69;;;16.39;56.54
8253;BME280;61313;48.396;10.008;2023-10-08T08:24:53;97086.72;;;16.45;56.33
8253;BME280;61313;48.396;10.008;2023-10-08T08:27:30;97083.22;;;16.45;56.62
8253;BME280;61313;48.396;10.008;2023-10-08T08:29:58;97080.56;;;16.45;56.71
8253;BME280;61313;48.396;10.008;2023-10-08T08:32:38;97078.69;;;16.47;56.43
8253;BME280;61313;48.396;10.008;2023-10-08T08:35:11;97070.81;;;16.45;56.18
8253;BME280;61313;48.396;10.008;2023-10-08T08:37:37;97070.81;;;16.45;56.79
8253;BME280;61313;48.396;10.008;2023-10-08T08:40:06;97074.66;;;16.56;56.42
8253;BME280;61313;48.396;10.008;2023-10-08T08:42:46;97065.66;;;16.58;56.50
8253;BME280;61313;48.396;10.008;2023-10-08T08:45:13;97066.88;;;16.52;56.82
8253;BME280;61313;48.396;10.008;2023-10-08T08:47:43;97072.00;;;16.56;56.46
8253;BME280;61313;48.396;10.008;2023-10-08T08:50:09;97083.97;;;16.63;56.49
8253;BME280;61313;48.396;10.008;2023-10-08T08:52:36;97079.09;;;16.71;56.77
8253;BME280;61313;48.396;10.008;2023-10-08T08:55:08;97093.47;;;16.83;56.26
8253;BME280;61313;48.396;10.008;2023-10-08T08:57:59;97094.41;;;17.12;55.63
8253;BME280;61313;48.396;10.008;2023-10-08T09:00:28;97091.88;;;17.25;55.53
8253;BME280;61313;48.396;10.008;2023-10-08T09:02:55;97083.41;;;17.48;54.76
8253;BME280;61313;48.396;10.008;2023-10-08T09:05:21;97086.63;;;17.68;54.57
8253;BME280;61313;48.396;10.008;2023-10-08T09:10:29;97095.38;;;17.84;54.11
8253;BME280;61313;48.396;10.008;2023-10-08T09:12:56;97093.28;;;18.04;53.55
8253;BME280;61313;48.396;10.008;2023-10-08T09:15:27;97097.63;;;18.60;51.77
8253;BME280;61313;48.396;10.008;2023-10-08T09:17:53;97086.97;;;19.02;50.12
8253;BME280;61313;48.396;10.008;2023-10-08T09:20:20;97090.16;;;19.07;49.94
8253;BME280;61313;48.396;10.008;2023-10-08T09:22:46;97081.88;;;19.24;48.94
8253;BME280;61313;48.396;10.008;2023-10-08T09:25:32;97088.09;;;19.51;48.23
8253;BME280;61313;48.396;10.008;2023-10-08T09:27:58;97096.59;;;19.56;48.05
8253;BME280;61313;48.396;10.008;2023-10-08T09:30:23;97092.16;;;19.56;47.82
8253;BME280;61313;48.396;10.008;2023-10-08T09:32:51;97106.63;;;19.52;47.72
8253;BME280;61313;48.396;10.008;2023-10-08T09:35:17;97103.00;;;19.40;48.16
8253;BME280;61313;48.396;10.008;2023-10-08T09:37:44;97115.00;;;19.33;48.39
8253;BME280;61313;48.396;10.008;2023-10-08T09:40:11;97124.69;;;19.21;48.64
8253;BME280;61313;48.396;10.008;2023-10-08T09:42:41;97129.03;;;19.22;49.15
8253;BME280;61313;48.396;10.008;2023-10-08T09:45:08;97127.56;;;19.31;49.05
8253;BME280;61313;48.396;10.008;2023-10-08T09:47:36;97131.53;;;19.51;48.61
8253;BME280;61313;48.396;10.008;2023-10-08T09:50:04;97124.88;;;19.71;48.39
8253;BME280;61313;48.396;10.008;2023-10-08T09:53:09;97129.56;;;19.93;48.00
8253;BME280;61313;48.396;10.008;2023-10-08T09:55:56;97134.16;;;20.04;47.27
8253;BME280;61313;48.396;10.008;2023-10-08T09:58:23;97138.06;;;19.98;47.45
8253;BME280;61313;48.396;10.008;2023-10-08T10:00:50;97135.84;;;19.92;47.47
8253;BME280;61313;48.396;10.008;2023-10-08T10:03:18;97140.31;;;19.79;47.52
8253;BME280;61313;48.396;10.008;2023-10-08T10:05:44;97137.63;;;19.66;47.97
8253;BME280;61313;48.396;10.008;2023-10-08T10:08:10;97142.84;;;19.55;48.10
8253;BME280;61313;48.396;10.008;2023-10-08T10:10:37;97146.78;;;19.49;48.51
8253;BME280;61313;48.396;10.008;2023-10-08T10:13:11;97144.81;;;19.38;48.86
8253;BME280;61313;48.396;10.008;2023-10-08T10:15:37;97129.16;;;19.34;49.40
8253;BME280;61313;48.396;10.008;2023-10-08T10:18:29;97138.63;;;19.25;49.36
8253;BME280;61313;48.396;10.008;2023-10-08T10:20:59;97140.84;;;19.18;49.69
8253;BME280;61313;48.396;10.008;2023-10-08T10:23:45;97136.47;;;19.17;49.47
8253;BME280;61313;48.396;10.008;2023-10-08T10:26:34;97141.56;;;19.08;49.99
8253;BME280;61313;48.396;10.008;2023-10-08T10:31:45;97141.94;;;19.01;50.82
8253;BME280;61313;48.396;10.008;2023-10-08T10:34:25;97132.50;;;18.97;51.21
8253;BME280;61313;48.396;10.008;2023-10-08T10:36:53;97128.41;;;18.92;51.57
8253;BME280;61313;48.396;10.008;2023-10-08T10:39:24;97126.94;;;18.88;51.99
8253;BME280;61313;48.396;10.008;2023-10-08T10:42:00;97114.47;;;18.88;52.07
8253;BME280;61313;48.396;10.008;2023-10-08T10:44:30;97118.38;;;18.82;52.21
8253;BME280;61313;48.396;10.008;2023-10-08T10:46:56;97117.53;;;18.82;52.22
8253;BME280;61313;48.396;10.008;2023-10-08T10:49:50;97121.03;;;18.82;52.54
8253;BME280;61313;48.396;10.008;2023-10-08T10:55:06;97102.41;;;18.82;52.88
8253;BME280;61313;48.396;10.008;2023-10-08T10:57:41;97120.00;;;18.85;53.02
8253;BME280;61313;48.396;10.008;2023-10-08T11:00:08;97117.97;;;18.89;52.85
8253;BME280;61313;48.396;10.008;2023-10-08T11:02:52;97129.16;;;18.94;53.09
8253;BME280;61313;48.396;10.008;2023-10-08T11:05:22;97129.63;;;19.00;52.91
8253;BME280;61313;48.396;10.008;2023-10-08T11:07:57;97133.78;;;19.04;52.85
8253;BME280;61313;48.396;10.008;2023-10-08T11:10:33;97130.06;;;19.07;53.06
8253;BME280;61313;48.396;10.008;2023-10-08T11:13:00;97128.03;;;19.11;52.86
8253;BME280;61313;48.396;10.008;2023-10-08T11:15:29;97129.00;;;19.10;52.73
8253;BME280;61313;48.396;10.008;2023-10-08T11:18:18;97131.28;;;19.16;52.75
8253;BME280;61313;48.396;10.008;2023-10-08T11:20:45;97128.28;;;19.20;52.63
8253;BME280;61313;48.396;10.008;2023-10-08T11:23:11;97124.91;;;19.31;52.41
8253;BME280;61313;48.396;10.008;2023-10-08T11:25:59;97128.00;;;19.38;52.14
8253;BME280;61313;48.396;10.008;2023-10-08T11:28:38;97127.03;;;19.39;52.21
8253;BME280;61313;48.396;10.008;2023-10-08T11:31:14;97126.41;;;19.48;51.94
8253;BME280;61313;48.396;10.008;2023-10-08T11:33:43;97116.97;;;19.57;51.88
8253;BME280;61313;48.396;10.008;2023-10-08T11:36:20;97115.69;;;19.62;51.84
8253;BME280;61313;48.396;10.008;2023-10-08T11:38:51;97116.91;;;19.71;51.42
8253;BME280;61313;48.396;10.008;2023-10-08T11:41:18;97120.31;;;19.73;51.28
8253;BME280;61313;48.396;10.008;2023-10-08T11:43:54;97111.34;;;19.74;51.07
8253;BME280;61313;48.396;10.008;2023-10-08T11:46:29;97133.19;;;19.79;51.05
8253;BME280;61313;48.396;10.008;2023-10-08T11:48:59;97120.84;;;19.78;51.46
8253;BME280;61313;48.396;10.008;2023-10-08T11:51:33;97127.13;;;19.77;51.01
8253;BME280;61313;48.396;10.008;2023-10-08T11:54:03;97122.75;;;19.76;51.13
8253;BME280;61313;48.396;10.008;2023-10-08T11:56:32;97119.00;;;19.79;51.58
8253;BME280;61313;48.396;10.008;2023-10-08T11:59:01;97119.16;;;19.77;51.70
8253;BME280;61313;48.396;10.008;2023-10-08T12:01:30;97113.81;;;19.77;51.69
8253;BME280;61313;48.396;10.008;2023-10-08T12:04:00;97111.03;;;19.79;51.70
8253;BME280;61313;48.396;10.008;2023-10-08T12:06:26;97105.59;;;19.80;51.69
8253;BME280;61313;48.396;10.008;2023-10-08T12:08:55;97112.63;;;19.81;51.80
8253;BME280;61313;48.396;10.008;2023-10-08T12:11:24;97103.47;;;19.85;51.69
8253;BME280;61313;48.396;10.008;2023-10-08T12:13:57;97110.28;;;19.90;51.76
8253;BME280;61313;48.396;10.008;2023-10-08T12:16:24;97107.31;;;19.94;51.84
8253;BME280;61313;48.396;10.008;2023-10-08T12:18:51;97108.06;;;19.96;51.70
8253;BME280;61313;48.396;10.008;2023-10-08T12:21:27;97107.81;;;19.99;51.80
8253;BME280;61313;48.396;10.008;2023-10-08T12:23:55;97105.69;;;20.04;51.93
8253;BME280;61313;48.396;10.008;2023-10-08T12:26:21;97105.34;;;20.09;51.97
8253;BME280;61313;48.396;10.008;2023-10-08T12:28:47;97108.88;;;20.09;52.01
8253;BME280;61313;48.396;10.008;2023-10-08T12:31:18;97095.13;;;20.16;52.00
8253;BME280;61313;48.396;10.008;2023-10-08T12:33:48;97092.31;;;20.17;52.18
8253;BME280;61313;48.396;10.008;2023-10-08T12:36:16;97086.28;;;20.15;52.04
8253;BME280;61313;48.396;10.008;2023-10-08T12:38:43;97090.03;;;20.13;51.98
8253;BME280;61313;48.396;10.008;2023-10-08T12:41:12;97088.06;;;20.15;52.17
8253;BME280;61313;48.396;10.008;2023-10-08T12:43:42;97075.94;;;20.11;52.30
8253;BME280;61313;48.396;10.008;2023-10-08T12:46:11;97080.31;;;20.12;52.46
8253;BME280;61313;48.396;10.008;2023-10-08T12:48:44;97082.75;;;20.15;52.56
8253;BME280;61313;48.396;10.008;2023-10-08T12:51:12;97077.22;;;20.18;52.68
8253;BME280;61313;48.396;10.008;2023-10-08T12:53:38;97080.63;;;20.20;52.73
8253;BME280;61313;48.396;10.008;2023-10-08T12:56:08;97081.25;;;20.23;53.22
8253;BME280;61313;48.396;10.008;2023-10-08T12:58:41;97074.72;;;20.27;53.00
8253;BME280;61313;48.396;10.008;2023-10-08T13:01:10;97075.69;;;20.26;53.34
8253;BME280;61313;48.396;10.008;2023-10-08T13:03:39;97074.00;;;20.25;52.96
8253;BME280;61313;48.396;10.008;2023-10-08T13:06:08;97075.91;;;20.23;52.84
8253;BME280;61313;48.396;10.008;2023-10-08T13:08:40;97068.00;;;20.22;52.82
8253;BME280;61313;48.396;10.008;2023-10-08T13:11:05;97068.16;;;20.20;53.00
8253;BME280;61313;48.396;10.008;2023-10-08T13:13:31;97067.31;;;20.20;53.15
8253;BME280;61313;48.396;10.008;2023-10-08T13:16:02;97069.97;;;20.20;53.06
8253;BME280;61313;48.396;10.008;2023-10-08T13:18:33;97068.00;;;20.22;53.18
8253;BME280;61313;48.396;10.008;2023-10-08T13:20:58;97060.16;;;20.20;53.43
8253;BME280;61313;48.396;10.008;2023-10-08T13:23:23;97053.97;;;20.20;53.50
8253;BME280;61313;48.396;10.008;2023-10-08T13:25:50;97059.31;;;20.20;53.50
8253;BME280;61313;48.396;10.008;2023-10-08T13:28:24;97054.19;;;20.17;53.61
8253;BME280;61313;48.396;10.008;2023-10-08T13:30:53;97047.78;;;20.19;53.89
8253;BME280;61313;48.396;10.008;2023-10-08T13:33:21;97047.66;;;20.21;54.38